AirNav   Pilot Hours Calculator
 
 269 users online  

3CA1 Newport Beach Police Heliport
Newport Beach, California, USA

GOING TO NEWPORT BEACH?


FAA INFORMATION EFFECTIVE 05 DECEMBER 2019

Location

FAA Identifier: 3CA1
Lat/Long: 33-37-23.3300N 117-52-48.8200W
33-37.388833N 117-52.813667W
33.6231472,-117.8802278
(estimated)
Elevation: 156 ft. / 48 m (estimated)
Variation: 14E (1985)
From city: 1 mile NE of NEWPORT BEACH, CA
Time zone: UTC -8 (UTC -7 during Daylight Saving Time)
Zip code: 92660

Heliport Operations

Heliport use: Private use. Permission required prior to landing
Activation date: 09/1976
Control tower: no
ARTCC: LOS ANGELES CENTER
FSS: RIVERSIDE FLIGHT SERVICE STATION
Attendance: UNATNDD
Wind indicator: yes
Segmented circle: no

Heliport Communications

WX ASOS at SNA (3 nm N): PHONE 714-424-0590
WX ASOS at FUL (16 nm N): PHONE 714-870-1372
WX ASOS at LGB (18 nm NW): PHONE 562-424-0572

Nearby radio navigation aids

VOR radial/distance  VOR name  Freq  Var
ELBr233/8.1EL TORO VOR/DME117.2014E
SLIr123/13.0SEAL BEACH VORTAC115.7015E
PDZr210/24.9PARADISE VORTAC112.2015E
POMr175/27.7POMONA VORTAC110.4015E
RALr213/(29.3)RIVERSIDE VOR112.4014E
SXCr046/30.8SANTA CATALINA VORTAC111.4015E
OCNr300/32.6OCEANSIDE VORTAC115.3015E
LAXr109/33.2LOS ANGELES VORTAC113.6015E
HDFr241/(35.9)HOMELAND VOR113.4014E
SMOr114/36.9SANTA MONICA VOR/DME110.8015E

Heliport Services

Airframe service: NONE
Powerplant service: NONE
Bottled oxygen: NONE
Bulk oxygen: NONE

Runway Information

Helipad H1

Dimensions: 45 x 45 ft. / 14 x 14 m
Surface: concrete
Latitude: 33-37.388833N
Longitude: 117-52.813667W
Elevation: 156.0 ft.
Traffic pattern: leftleft
Runway end identifier lights: no

Heliport Ownership and Management from official FAA records

Ownership: Publicly-owned
Owner: NEWPORT BEACH POLICE DEPT
870 SANTA BARBARA DR
NEWPORT BEACH, CA 92660
Phone 714-644-3730
Manager: LT. T. FISCHBACHER
870 SANTA BARBARA DR
NEWPORT BEACH, CA 92660
Phone 949-644-3730

Additional Remarks

FOR CD CTC LOS ANGELES ARTCC AT 661-575-2079.

Instrument Procedures

There are no published instrument procedures at 3CA1.

Some nearby airports with instrument procedures:

KSNA - John Wayne-Orange County Airport (3 nm N)
KSLI - Los Alamitos Army Airfield (13 nm NW)
KFUL - Fullerton Municipal Airport (16 nm N)
KLGB - Long Beach Airport (Daugherty Field) (18 nm NW)
KAJO - Corona Municipal Airport (22 nm NE)
 
Loc | Ops | Rwys | IFR | FBO | Links
Com | Nav | Svcs | Stats | Notes

San Bernardino International Airport Authority
 
Area around 3CA1 (Newport Beach Police Heliport)
 
Road maps at: MapQuest Bing Google
 
Aerial photo
No photo
 
Sectional chart

 
Airport distance calculator
Flying to Newport Beach Police Heliport? Find the distance to fly.

From to 3CA1

Sunrise and sunset
Times for 14-Dec-2019
 Local
(UTC-8)
 Zulu
(UTC)
Morning civil twilight06:2114:21
Sunrise06:4914:49
Sunset16:4300:43
Evening civil twilight17:1101:11

Current date and time
Zulu (UTC)  14-Dec-2019 11:04:28
Local (UTC-8)  14-Dec-2019 03:04:28
 
METAR
KSNA 
3nm N 
141053Z AUTO 10005KT 7SM OVC013 16/12 A3000 RMK AO2 SLP157 T01560117
KSLI 
12nm NW 
141058Z AUTO 09004KT 9SM OVC010 15/15 A2999 RMK AO2 SLP159 T01450145 PNO $
KFUL 
15nm N 
141053Z AUTO 10003KT 3SM HZ OVC008 15/12 A2999 RMK AO2 SLP155 T01500122
KLGB 
18nm NW 
141053Z AUTO 10004KT 4SM BR OVC011 14/13 A2999 RMK AO2 CIG 009V012 SLP155 T01440128
TAF
KSNA 
3nm N 
140535Z 1406/1506 VRB05KT 6SM BR BKN007 FM141000 VRB04KT 3SM BR BKN004 FM141600 VRB05KT 6SM BR BKN015 FM142100 24008KT P6SM BKN035 FM150200 VRB04KT P6SM BKN025
KSLI 
12nm NW 
140502Z 1405/1511 VRB06KT 3200 BR OVC007 QNH2997INS TEMPO 1405/1416 0600 FG OVC050 BECMG 1417/1418 VRB06KT 9999 NSW BKN020 QNH2988INS BECMG 1504/1505 VRB06KT 8000 BR BKN020 QNH2989INS TEMPO 1506/1511 4800 BR OVC008 TX16/1423Z TN11/1411Z
KLGB 
18nm NW 
140543Z 1406/1506 VRB03KT 3SM BR OVC012 FM141000 13007KT P6SM OVC022 FM141900 19006KT P6SM BKN025 BKN050 FM142200 26008KT P6SM SCT025 BKN050 FM150300 30008KT P6SM SCT050
NOTAMs
Click for the latest NOTAMs
NOTAMs are issued by the DoD/FAA and will open in a separate window not controlled by AirNav.

 

 
 

Would you like to see your business listed on this page?

 If your business provides an interesting product or service to pilots, flight crews, aircraft, or users of the Newport Beach Police Heliport, you should consider listing it here.  To start the listing process, click on the button below
 
Add a business
 

Other Pages about Newport Beach Police Heliport

Update a link
 
Copyright © AirNav, LLC. All rights reserved. Privacy Policy  Contact